createdAt,value
2019-06-08T00:02:04.677Z,100890.96
2019-06-08T00:04:34.851Z,100908.00
2019-06-08T00:07:04.938Z,100920.31
2019-06-08T00:09:34.993Z,100917.91
2019-06-08T00:12:05.211Z,100929.52
2019-06-08T00:14:35.203Z,100944.87
2019-06-08T00:17:05.209Z,100939.91
2019-06-08T00:19:35.212Z,100936.05
2019-06-08T00:22:05.362Z,100917.73
2019-06-08T00:24:35.451Z,100891.94
2019-06-08T00:27:05.460Z,100868.19
2019-06-08T00:29:35.468Z,100851.77
2019-06-08T00:32:08.563Z,100820.55
2019-06-08T00:34:38.557Z,100875.31
2019-06-08T00:37:08.568Z,100857.09
2019-06-08T00:39:38.556Z,100835.97
2019-06-08T00:42:08.576Z,100838.66
2019-06-08T00:44:38.557Z,100805.68
2019-06-08T00:47:08.643Z,100777.47
2019-06-08T00:49:38.631Z,100799.31
2019-06-08T00:52:08.651Z,100830.22
2019-06-08T00:54:38.642Z,100907.00
2019-06-08T00:57:08.724Z,100921.06
2019-06-08T00:59:38.831Z,100943.34
2019-06-08T01:02:08.816Z,100934.34
2019-06-08T01:04:38.823Z,100909.16
2019-06-08T01:07:08.894Z,100902.73
2019-06-08T01:09:39.879Z,100876.25
2019-06-08T01:12:11.582Z,100868.28
2019-06-08T01:14:44.278Z,100850.80
2019-06-08T01:17:14.365Z,100803.63
2019-06-08T01:19:44.525Z,100833.08
2019-06-08T01:22:14.532Z,100884.63
2019-06-08T01:24:44.878Z,100904.06
2019-06-08T01:27:14.972Z,100913.86
2019-06-08T01:29:44.946Z,100910.34
2019-06-08T01:32:15.112Z,100904.90
2019-06-08T01:34:45.113Z,100910.12
2019-06-08T01:37:15.124Z,100916.41
2019-06-08T01:39:45.714Z,100921.67
2019-06-08T01:42:15.708Z,100917.27
2019-06-08T01:44:45.795Z,100926.02
2019-06-08T01:47:15.796Z,100930.47
2019-06-08T01:49:45.811Z,100929.00
2019-06-08T01:52:15.811Z,100937.34
2019-06-08T01:54:45.907Z,100941.44
2019-06-08T01:57:15.927Z,100946.96
2019-06-08T01:59:45.918Z,100942.67
2019-06-08T02:02:16.007Z,100943.45
2019-06-08T02:04:45.997Z,100943.81
2019-06-08T02:07:16.090Z,100956.17
2019-06-08T02:09:47.746Z,100939.98
2019-06-08T02:12:17.838Z,100934.99
2019-06-08T02:14:47.855Z,100935.45
2019-06-08T02:17:17.846Z,100949.08
2019-06-08T02:19:48.936Z,100953.33
2019-06-08T02:22:18.930Z,100931.78
2019-06-08T02:24:49.004Z,100918.50
2019-06-08T02:27:19.007Z,100929.83
2019-06-08T02:29:48.996Z,100951.50
2019-06-08T02:32:19.013Z,100943.69
2019-06-08T02:34:49.079Z,100948.02
2019-06-08T02:37:19.093Z,100941.78
2019-06-08T02:39:50.793Z,100934.94
2019-06-08T02:42:20.863Z,100915.37
2019-06-08T02:44:50.858Z,100911.80
2019-06-08T02:47:20.945Z,100905.30
2019-06-08T02:49:51.041Z,100901.89
2019-06-08T02:52:23.218Z,100913.86
2019-06-08T02:54:53.764Z,100909.47
2019-06-08T02:57:25.663Z,100925.89
2019-06-08T02:59:56.914Z,100919.91
2019-06-08T03:02:29.694Z,100917.59
2019-06-08T03:05:03.074Z,100909.84
2019-06-08T03:07:36.872Z,100912.16
2019-06-08T03:10:07.495Z,100919.56
2019-06-08T03:12:41.783Z,100945.98
2019-06-08T03:15:11.250Z,100949.40
2019-06-08T03:17:42.072Z,100931.39
2019-06-08T03:20:12.450Z,100946.38
2019-06-08T03:22:44.026Z,100948.41
2019-06-08T03:25:15.431Z,100946.86
2019-06-08T03:27:45.410Z,100948.19
2019-06-08T03:30:19.115Z,100946.00
2019-06-08T03:32:55.578Z,100950.68
2019-06-08T03:35:19.807Z,100950.75
2019-06-08T03:37:50.293Z,100964.12
2019-06-08T03:40:20.352Z,100967.28
2019-06-08T03:42:51.104Z,100975.16
2019-06-08T03:45:21.693Z,100983.18
2019-06-08T03:47:52.043Z,100982.66
2019-06-08T03:50:22.067Z,100986.33
2019-06-08T03:52:53.397Z,100987.54
2019-06-08T03:55:23.388Z,100998.81
2019-06-08T03:57:53.399Z,100988.27
2019-06-08T04:00:23.571Z,100999.36
2019-06-08T04:02:53.571Z,101024.11
2019-06-08T04:05:23.641Z,101022.59
2019-06-08T04:07:53.655Z,101014.42
2019-06-08T04:10:23.651Z,101016.41
2019-06-08T04:12:53.667Z,101021.66
2019-06-08T04:15:23.737Z,101015.16
2019-06-08T04:17:53.765Z,101013.33
2019-06-08T04:20:23.851Z,101015.30
2019-06-08T04:22:53.846Z,101008.80
2019-06-08T04:25:23.868Z,100999.47
2019-06-08T04:27:53.873Z,100993.69
2019-06-08T04:30:24.146Z,100998.12
2019-06-08T04:32:54.133Z,101005.58
2019-06-08T04:35:24.162Z,101018.28
2019-06-08T04:37:56.657Z,101020.52
2019-06-08T04:40:28.087Z,101040.97
2019-06-08T04:42:58.237Z,101046.75
2019-06-08T04:45:28.391Z,101056.40
2019-06-08T04:47:58.390Z,101052.07
2019-06-08T04:50:28.409Z,101057.27
2019-06-08T04:52:58.389Z,101050.69
2019-06-08T04:55:29.482Z,101036.61
2019-06-08T04:57:59.456Z,101041.42
2019-06-08T05:00:39.076Z,101030.52
2019-06-08T05:03:09.714Z,101023.02
2019-06-08T05:05:41.090Z,101031.41
2019-06-08T05:08:11.166Z,101020.00
2019-06-08T05:10:41.312Z,101020.00
2019-06-08T05:13:11.440Z,101038.61
2019-06-08T05:15:45.461Z,101053.90
2019-06-08T05:18:15.563Z,101056.80
2019-06-08T05:20:48.853Z,101057.84
2019-06-08T05:23:17.335Z,101054.42
2019-06-08T05:25:47.354Z,101055.80
2019-06-08T05:28:17.403Z,101061.27
2019-06-08T05:30:47.458Z,101063.16
2019-06-08T05:33:17.416Z,101061.93
2019-06-08T05:35:47.612Z,101060.33
2019-06-08T05:38:17.833Z,101058.30
2019-06-08T05:40:47.844Z,101056.67
2019-06-08T05:43:18.938Z,101062.78
2019-06-08T05:45:49.977Z,101069.17
2019-06-08T05:48:20.102Z,101065.58
2019-06-08T05:51:00.493Z,101068.59
2019-06-08T05:53:21.977Z,101056.64
2019-06-08T05:55:52.545Z,101058.55
2019-06-08T05:58:25.510Z,101061.45
2019-06-08T06:00:55.604Z,101061.83
2019-06-08T06:03:25.621Z,101064.95
2019-06-08T06:05:55.623Z,101074.50
2019-06-08T06:08:25.635Z,101072.31
2019-06-08T06:10:55.703Z,101065.84
2019-06-08T06:13:25.724Z,101074.53
2019-06-08T06:15:56.035Z,101068.36
2019-06-08T06:18:26.060Z,101085.16
2019-06-08T06:21:09.730Z,101091.56
2019-06-08T06:23:27.773Z,101083.27
2019-06-08T06:25:57.757Z,101094.09
2019-06-08T06:28:27.845Z,101093.45
2019-06-08T06:30:57.842Z,101091.54
2019-06-08T06:33:27.888Z,101087.37
2019-06-08T06:35:57.886Z,101078.27
2019-06-08T06:38:27.904Z,101083.60
2019-06-08T06:40:57.908Z,101096.08
2019-06-08T06:43:28.240Z,101091.37
2019-06-08T06:45:58.242Z,101111.00
2019-06-08T06:48:28.252Z,101115.21
2019-06-08T06:50:58.252Z,101118.86
2019-06-08T06:53:29.229Z,101128.41
2019-06-08T06:55:59.362Z,101134.64
2019-06-08T06:58:29.362Z,101141.95
2019-06-08T07:00:59.444Z,101141.55
2019-06-08T07:03:29.622Z,101146.53
2019-06-08T07:05:59.620Z,101143.28
2019-06-08T07:08:29.630Z,101147.24
2019-06-08T07:10:59.695Z,101152.52
2019-06-08T07:13:29.719Z,101157.39
2019-06-08T07:16:16.860Z,101168.11
2019-06-08T07:18:31.420Z,101157.27
2019-06-08T07:21:01.552Z,101168.19
2019-06-08T07:23:31.562Z,101164.02
2019-06-08T07:26:01.616Z,101170.86
2019-06-08T07:28:31.734Z,101154.72
2019-06-08T07:31:01.891Z,101172.56
2019-06-08T07:33:33.584Z,101160.13
2019-06-08T07:36:06.323Z,101158.75
2019-06-08T07:38:36.352Z,101159.56
2019-06-08T07:41:06.372Z,101172.13
2019-06-08T07:43:36.387Z,101176.21
2019-06-08T07:46:06.446Z,101177.59
2019-06-08T07:48:36.569Z,101172.16
2019-06-08T07:51:06.624Z,101178.38
2019-06-08T07:53:36.635Z,101190.55
2019-06-08T07:56:06.710Z,101184.62
2019-06-08T07:58:36.848Z,101196.70
2019-06-08T08:01:10.577Z,101190.59
2019-06-08T08:03:40.553Z,101193.27
2019-06-08T08:06:10.603Z,101200.05
2019-06-08T08:08:40.583Z,101200.76
2019-06-08T08:11:10.595Z,101204.45
2019-06-08T08:13:40.727Z,101204.26
2019-06-08T08:16:10.761Z,101218.85
2019-06-08T08:18:40.893Z,101218.08
2019-06-08T08:21:21.273Z,101213.80
2019-06-08T08:23:42.626Z,101213.34
2019-06-08T08:26:12.661Z,101230.08
2019-06-08T08:28:42.659Z,101221.15
2019-06-08T08:31:15.267Z,101234.11
2019-06-08T08:33:44.827Z,101236.52
2019-06-08T08:36:14.830Z,101237.02
2019-06-08T08:38:47.832Z,101229.41
2019-06-08T08:41:18.193Z,101228.31
2019-06-08T08:43:51.312Z,101225.80
2019-06-08T08:46:20.319Z,101234.19
2019-06-08T08:48:51.368Z,101232.58
2019-06-08T08:51:22.072Z,101223.58
2019-06-08T08:53:55.873Z,101226.31
2019-06-08T08:56:23.859Z,101232.78
2019-06-08T08:58:54.428Z,101241.09
2019-06-08T09:01:24.470Z,101252.42
2019-06-08T09:03:57.042Z,101246.91
2019-06-08T09:06:27.955Z,101237.61
2019-06-08T09:09:00.832Z,101250.15
2019-06-08T09:11:29.668Z,101252.52
2019-06-08T09:14:05.736Z,101264.41
2019-06-08T09:16:31.431Z,101264.31
2019-06-08T09:19:04.447Z,101267.19
2019-06-08T09:21:34.918Z,101274.06
2019-06-08T09:24:07.495Z,101269.03
2019-06-08T09:26:38.188Z,101274.17
2019-06-08T09:29:11.269Z,101277.47
2019-06-08T09:31:42.936Z,101286.88
2019-06-08T09:34:15.558Z,101298.57
2019-06-08T09:36:44.707Z,101294.22
2019-06-08T09:39:14.704Z,101281.47
2019-06-08T09:41:44.710Z,101302.94
2019-06-08T09:44:14.928Z,101300.48
2019-06-08T09:46:45.180Z,101311.75
2019-06-08T09:49:15.206Z,101315.83
2019-06-08T09:51:45.323Z,101322.83
2019-06-08T09:54:17.972Z,101326.65
2019-06-08T09:56:47.838Z,101332.39
2019-06-08T09:59:18.596Z,101331.23
2019-06-08T10:01:49.226Z,101333.19
2019-06-08T10:04:19.237Z,101337.16
2019-06-08T10:06:49.793Z,101339.02
2019-06-08T10:09:19.871Z,101349.54
2019-06-08T10:11:54.278Z,101351.17
2019-06-08T10:14:24.383Z,101349.03
2019-06-08T10:16:54.426Z,101344.41
2019-06-08T10:19:24.500Z,101359.95
2019-06-08T10:21:54.841Z,101350.80
2019-06-08T10:24:24.982Z,101351.10
2019-06-08T10:26:55.260Z,101360.88
2019-06-08T10:29:26.200Z,101366.45
2019-06-08T10:31:57.230Z,101363.95
2019-06-08T10:34:29.595Z,101360.29
2019-06-08T10:37:04.947Z,101369.16
2019-06-08T10:39:32.543Z,101368.23
2019-06-08T10:42:04.731Z,101378.28
2019-06-08T10:44:34.581Z,101372.21
2019-06-08T10:47:07.465Z,101372.69
2019-06-08T10:49:38.520Z,101381.88
2019-06-08T10:52:10.633Z,101376.20
2019-06-08T10:54:40.398Z,101391.45
2019-06-08T10:57:10.562Z,101401.87
2019-06-08T10:59:40.611Z,101390.72
2019-06-08T11:02:14.659Z,101384.55
2019-06-08T11:04:44.813Z,101378.48
2019-06-08T11:07:16.356Z,101389.35
2019-06-08T11:09:48.128Z,101395.87
2019-06-08T11:12:23.793Z,101391.25
2019-06-08T11:14:59.582Z,101397.27
2019-06-08T11:17:30.075Z,101400.57
2019-06-08T11:20:02.248Z,101393.46
2019-06-08T11:22:35.783Z,101403.41
2019-06-08T11:25:15.188Z,101416.26
2019-06-08T11:27:40.931Z,101405.25
2019-06-08T11:30:20.541Z,101412.16
2019-06-08T11:32:44.098Z,101410.63
2019-06-08T11:35:14.436Z,101411.73
2019-06-08T11:37:44.572Z,101413.01
2019-06-08T11:40:14.843Z,101424.02
2019-06-08T11:42:44.931Z,101422.45
2019-06-08T11:45:17.752Z,101416.19
2019-06-08T11:47:50.045Z,101421.91
2019-06-08T11:50:23.120Z,101421.38
2019-06-08T11:52:53.122Z,101431.12
2019-06-08T11:55:23.198Z,101429.53
2019-06-08T11:57:54.135Z,101429.94
2019-06-08T12:01:00.709Z,101433.02
2019-06-08T12:03:30.431Z,101430.52
2019-06-08T12:06:00.249Z,101427.80
2019-06-08T12:08:31.521Z,101425.95
2019-06-08T12:11:03.767Z,101428.75
2019-06-08T12:13:33.318Z,101428.80
2019-06-08T12:16:03.471Z,101435.19
2019-06-08T12:18:33.555Z,101442.64
2019-06-08T12:21:03.888Z,101434.67
2019-06-08T12:23:37.086Z,101444.69
2019-06-08T12:26:10.251Z,101458.16
2019-06-08T12:28:40.317Z,101450.20
2019-06-08T12:31:15.696Z,101451.33
2019-06-08T12:33:42.807Z,101444.84
2019-06-08T12:36:15.564Z,101442.51
2019-06-08T12:38:48.603Z,101453.98
2019-06-08T12:41:19.371Z,101446.39
2019-06-08T12:43:49.535Z,101453.65
2019-06-08T12:46:21.489Z,101463.09
2019-06-08T12:48:51.275Z,101459.00
2019-06-08T12:51:23.522Z,101455.06
2019-06-08T12:53:53.671Z,101453.39
2019-06-08T12:56:28.734Z,101451.78
2019-06-08T12:58:59.026Z,101462.61
2019-06-08T13:01:29.020Z,101449.23
2019-06-08T13:03:59.296Z,101466.19
2019-06-08T13:06:32.029Z,101461.64
2019-06-08T13:09:02.050Z,101465.42
2019-06-08T13:11:35.188Z,101466.83
2019-06-08T13:14:10.263Z,101466.80
2019-06-08T13:16:40.102Z,101475.46
2019-06-08T13:19:11.119Z,101479.88
2019-06-08T13:21:41.808Z,101474.16
2019-06-08T13:24:13.070Z,101470.85
2019-06-08T13:26:43.200Z,101460.11
2019-06-08T13:29:13.779Z,101480.73
2019-06-08T13:31:49.631Z,101475.03
2019-06-08T13:34:24.350Z,101484.59
2019-06-08T13:36:54.444Z,101490.97
2019-06-08T13:39:24.472Z,101488.09
2019-06-08T13:41:54.467Z,101497.14
2019-06-08T13:44:27.881Z,101484.44
2019-06-08T13:46:59.848Z,101488.61
2019-06-08T13:49:30.833Z,101494.39
2019-06-08T13:52:01.200Z,101503.63
2019-06-08T13:54:33.578Z,101506.56
2019-06-08T13:57:05.486Z,101509.47
2019-06-08T13:59:36.082Z,101513.26
2019-06-08T14:02:13.514Z,101514.39
2019-06-08T14:04:46.092Z,101513.17
2019-06-08T14:07:18.857Z,101506.79
2019-06-08T14:09:48.217Z,101503.68
2019-06-08T14:12:23.199Z,101502.72
2019-06-08T14:14:52.585Z,101508.52
2019-06-08T14:17:24.183Z,101508.72
2019-06-08T14:19:55.830Z,101524.06
2019-06-08T14:22:30.300Z,101509.86
2019-06-08T14:25:03.683Z,101507.47
2019-06-08T14:27:33.685Z,101510.99
2019-06-08T14:30:08.405Z,101509.72
2019-06-08T14:32:38.531Z,101505.84
2019-06-08T14:35:08.968Z,101507.38
2019-06-08T14:37:39.013Z,101508.90
2019-06-08T14:40:10.701Z,101515.14
2019-06-08T14:42:41.601Z,101517.54
2019-06-08T14:45:12.260Z,101500.69
2019-06-08T14:47:47.589Z,101499.58
2019-06-08T14:50:21.128Z,101499.99
2019-06-08T14:52:51.304Z,101506.18
2019-06-08T14:55:22.258Z,101498.98
2019-06-08T14:57:53.181Z,101499.30
2019-06-08T15:00:24.493Z,101493.75
2019-06-08T15:02:58.980Z,101501.66
2019-06-08T15:05:31.664Z,101500.48
2019-06-08T15:08:00.905Z,101500.05
2019-06-08T15:10:31.378Z,101501.09
2019-06-08T15:13:01.426Z,101492.80
2019-06-08T15:15:32.278Z,101500.88
2019-06-08T15:18:04.999Z,101489.84
2019-06-08T15:20:35.194Z,101482.23
2019-06-08T15:23:05.889Z,101494.29
2019-06-08T15:25:38.688Z,101494.83
2019-06-08T15:28:12.360Z,101499.09
2019-06-08T15:30:42.804Z,101498.06
2019-06-08T15:33:13.874Z,101513.23
2019-06-08T15:35:47.438Z,101499.80
2019-06-08T15:38:17.616Z,101496.14
2019-06-08T15:40:48.955Z,101501.43
2019-06-08T15:43:18.945Z,101494.99
2019-06-08T15:45:51.406Z,101502.77
2019-06-08T15:48:24.107Z,101501.87
2019-06-08T15:50:54.162Z,101495.88
2019-06-08T15:53:24.420Z,101504.66
2019-06-08T15:55:58.248Z,101504.73
2019-06-08T15:58:32.179Z,101493.19
2019-06-08T16:01:01.319Z,101498.44
2019-06-08T16:03:31.461Z,101498.23
2019-06-08T16:06:01.508Z,101494.08
2019-06-08T16:08:37.775Z,101497.02
2019-06-08T16:11:03.903Z,101502.38
2019-06-08T16:13:35.403Z,101503.03
2019-06-08T16:16:05.735Z,101500.78
2019-06-08T16:18:36.149Z,101504.14
2019-06-08T16:21:06.171Z,101499.50
2019-06-08T16:23:39.199Z,101505.74
2019-06-08T16:26:09.273Z,101517.84
2019-06-08T16:28:39.357Z,101510.80
2019-06-08T16:31:09.827Z,101507.23
2019-06-08T16:33:40.311Z,101510.41
2019-06-08T16:36:11.813Z,101514.39
2019-06-08T16:38:42.922Z,101525.29
2019-06-08T16:41:12.935Z,101524.64
2019-06-08T16:43:43.591Z,101520.19
2019-06-08T16:46:13.609Z,101528.95
2019-06-08T16:48:43.682Z,101532.32
2019-06-08T16:51:13.703Z,101532.47
2019-06-08T16:53:44.766Z,101532.66
2019-06-08T16:56:17.921Z,101531.42
2019-06-08T16:58:51.583Z,101536.26
2019-06-08T17:01:21.815Z,101538.75
2019-06-08T17:03:52.028Z,101539.13
2019-06-08T17:06:22.059Z,101537.43
2019-06-08T17:08:52.115Z,101531.77
2019-06-08T17:11:22.145Z,101541.52
2019-06-08T17:13:52.133Z,101538.23
2019-06-08T17:16:22.236Z,101538.47
2019-06-08T17:18:55.809Z,101539.61
2019-06-08T17:21:24.527Z,101554.11
2019-06-08T17:23:54.517Z,101548.63
2019-06-08T17:26:26.843Z,101546.50
2019-06-08T17:28:57.042Z,101549.25
2019-06-08T17:31:27.014Z,101549.97
2019-06-08T17:33:57.007Z,101549.56
2019-06-08T17:36:27.029Z,101550.06
2019-06-08T17:38:57.298Z,101558.36
2019-06-08T17:41:28.846Z,101555.11
2019-06-08T17:44:03.506Z,101562.48
2019-06-08T17:46:34.573Z,101567.38
2019-06-08T17:49:08.995Z,101558.06
2019-06-08T17:51:41.828Z,101572.83
2019-06-08T17:54:13.483Z,101560.68
2019-06-08T17:56:43.559Z,101576.22
2019-06-08T17:59:13.691Z,101580.00
2019-06-08T18:01:43.820Z,101574.19
2019-06-08T18:04:14.210Z,101585.42
2019-06-08T18:06:44.601Z,101575.46
2019-06-08T18:09:17.498Z,101582.17
2019-06-08T18:11:47.979Z,101587.70
2019-06-08T18:14:18.237Z,101589.45
2019-06-08T18:16:48.234Z,101591.07
2019-06-08T18:19:21.301Z,101589.11
2019-06-08T18:21:53.778Z,101595.48
2019-06-08T18:24:23.791Z,101602.05
2019-06-08T18:26:58.100Z,101598.27
2019-06-08T18:29:29.307Z,101599.14
2019-06-08T18:32:00.836Z,101598.94
2019-06-08T18:34:30.859Z,101599.59
2019-06-08T18:37:00.858Z,101601.45
2019-06-08T18:39:31.414Z,101607.34
2019-06-08T18:42:01.408Z,101598.30
2019-06-08T18:44:31.659Z,101605.09
2019-06-08T18:47:01.689Z,101606.00
2019-06-08T18:49:31.822Z,101620.41
2019-06-08T18:52:01.944Z,101650.08
2019-06-08T18:54:31.938Z,101689.26
2019-06-08T18:57:02.025Z,101706.05
2019-06-08T18:59:32.028Z,101712.34
2019-06-08T19:02:02.064Z,101699.20
2019-06-08T19:04:32.068Z,101693.11
2019-06-08T19:07:03.002Z,101694.28
2019-06-08T19:09:34.126Z,101700.81
2019-06-08T19:12:04.495Z,101695.60
2019-06-08T19:14:37.376Z,101688.94
2019-06-08T19:17:07.593Z,101689.45
2019-06-08T19:19:42.261Z,101694.28
2019-06-08T19:22:09.387Z,101693.06
2019-06-08T19:24:42.394Z,101700.46
2019-06-08T19:27:11.238Z,101704.91
2019-06-08T19:29:42.568Z,101697.51
2019-06-08T19:32:17.081Z,101704.69
2019-06-08T19:34:52.301Z,101698.33
2019-06-08T19:37:18.984Z,101707.34
2019-06-08T19:39:51.941Z,101707.77
2019-06-08T19:42:37.111Z,101699.77
2019-06-08T19:45:04.928Z,101700.00
2019-06-08T19:47:29.115Z,101701.06
2019-06-08T19:49:59.525Z,101706.59
2019-06-08T19:52:31.145Z,101707.81
2019-06-08T19:55:09.033Z,101707.75
2019-06-08T19:57:41.978Z,101723.22
2019-06-08T20:00:12.813Z,101725.37
2019-06-08T20:02:44.573Z,101730.44
2019-06-08T20:05:14.619Z,101729.88
2019-06-08T20:07:47.403Z,101731.20
2019-06-08T20:10:18.143Z,101739.31
2019-06-08T20:12:50.959Z,101744.42
2019-06-08T20:15:21.301Z,101739.33
2019-06-08T20:17:51.683Z,101747.84
2019-06-08T20:20:21.696Z,101738.95
2019-06-08T20:22:53.480Z,101742.03
2019-06-08T20:25:23.369Z,101749.19
2019-06-08T20:27:58.857Z,101746.55
2019-06-08T20:30:29.930Z,101747.48
2019-06-08T20:33:01.509Z,101748.91
2019-06-08T20:35:31.549Z,101757.31
2019-06-08T20:38:01.524Z,101761.47
2019-06-08T20:40:33.591Z,101758.95
2019-06-08T20:43:03.251Z,101764.16
2019-06-08T20:45:33.279Z,101764.91
2019-06-08T20:48:07.825Z,101771.80
2019-06-08T20:50:38.191Z,101767.53
2019-06-08T20:53:08.634Z,101771.12
2019-06-08T20:55:40.526Z,101776.06
2019-06-08T20:58:10.762Z,101775.13
2019-06-08T21:00:40.854Z,101772.50
2019-06-08T21:03:13.938Z,101781.33
2019-06-08T21:05:43.957Z,101772.42
2019-06-08T21:08:14.023Z,101787.22
2019-06-08T21:10:44.297Z,101785.64
2019-06-08T21:13:17.804Z,101784.75
2019-06-08T21:15:52.108Z,101786.02
2019-06-08T21:18:19.300Z,101786.27
2019-06-08T21:20:49.376Z,101780.89
2019-06-08T21:23:19.779Z,101784.84
2019-06-08T21:25:53.253Z,101779.77
2019-06-08T21:28:21.474Z,101790.44
2019-06-08T21:30:55.999Z,101788.61
2019-06-08T21:33:23.321Z,101794.39
2019-06-08T21:35:58.333Z,101791.30
2019-06-08T21:38:25.049Z,101790.61
2019-06-08T21:40:59.894Z,101792.93
2019-06-08T21:43:27.983Z,101789.15
2019-06-08T21:46:01.168Z,101792.70
2019-06-08T21:48:31.214Z,101796.34
2019-06-08T21:51:01.803Z,101794.83
2019-06-08T21:53:32.004Z,101793.75
2019-06-08T21:56:07.650Z,101796.18
2019-06-08T21:58:37.847Z,101794.84
2019-06-08T22:01:08.170Z,101795.31
2019-06-08T22:03:38.326Z,101801.02
2019-06-08T22:06:08.404Z,101809.26
2019-06-08T22:08:38.495Z,101815.17
2019-06-08T22:11:09.135Z,101805.75
2019-06-08T22:13:42.088Z,101801.97
2019-06-08T22:16:12.351Z,101800.75
2019-06-08T22:18:42.424Z,101801.15
2019-06-08T22:21:12.521Z,101805.09
2019-06-08T22:23:42.509Z,101806.69
2019-06-08T22:26:12.629Z,101809.47
2019-06-08T22:28:42.645Z,101815.28
2019-06-08T22:31:12.650Z,101814.91
2019-06-08T22:33:42.661Z,101821.13
2019-06-08T22:36:14.812Z,101816.52
2019-06-08T22:38:47.754Z,101819.31
2019-06-08T22:41:17.783Z,101821.32
2019-06-08T22:43:49.446Z,101825.70
2019-06-08T22:46:19.436Z,101827.13
2019-06-08T22:48:53.479Z,101822.36
2019-06-08T22:51:24.135Z,101828.00
2019-06-08T22:53:55.702Z,101832.67
2019-06-08T22:56:27.604Z,101830.27
2019-06-08T22:59:03.221Z,101827.11
2019-06-08T23:01:30.077Z,101834.20
2019-06-08T23:04:02.229Z,101830.70
2019-06-08T23:06:31.775Z,101829.78
2019-06-08T23:09:03.754Z,101836.23
2019-06-08T23:11:34.454Z,101834.00
2019-06-08T23:14:12.895Z,101838.44
2019-06-08T23:16:39.076Z,101842.44
2019-06-08T23:19:09.059Z,101836.26
2019-06-08T23:21:44.526Z,101842.98
2019-06-08T23:24:14.543Z,101839.48
2019-06-08T23:26:45.118Z,101846.58
2019-06-08T23:29:17.989Z,101841.86
2019-06-08T23:31:49.017Z,101844.06
2019-06-08T23:34:19.114Z,101845.80
2019-06-08T23:36:58.659Z,101844.65
2019-06-08T23:39:20.865Z,101850.34
2019-06-08T23:41:50.869Z,101847.91
2019-06-08T23:44:20.871Z,101849.38
2019-06-08T23:46:53.608Z,101849.38
2019-06-08T23:49:23.659Z,101851.70
2019-06-08T23:51:58.124Z,101850.16
2019-06-08T23:54:30.145Z,101851.56
2019-06-08T23:57:01.152Z,101849.42
2019-06-08T23:59:37.100Z,101859.20
